Time;durP1;ratioP1;P1;durP2;ratioP2;P2;SDS_P1;SDS_P2;PMS_P1;PMS_P2;Temp;Humidity;BMP_temperature;BMP_pressure;BME280_temperature;BME280_humidity;BME280_pressure;Samples;Min_cycle;Max_cycle;Signal;HPM_P1;HPM_P2
2022/01/20 00:00:32;;;;;;;18.10;3.30;;;;;;;15.76;39.97;102565.97;5099267;28;20437;-67
2022/01/20 00:03:01;;;;;;;10.00;1.60;;;;;;;14.38;41.53;102578.41;5104313;28;20110;-67
2022/01/20 00:06:10;;;;;;;6.47;1.70;;;;;;;15.22;40.85;102578.44;5125056;28;20064;-67
2022/01/20 00:27:07;;;;;;;9.07;1.33;;;;;;;15.23;39.70;102596.00;5119484;28;20050;-67
2022/01/20 00:29:51;;;;;;;10.67;1.70;;;;;;;14.51;41.40;102604.75;5104800;28;20050;-67
2022/01/20 00:32:19;;;;;;;12.20;1.63;;;;;;;15.20;40.37;102601.28;5105418;28;20030;-67
2022/01/20 00:37:25;;;;;;;12.47;2.90;;;;;;;16.00;38.80;102595.78;5124500;28;20047;-67
2022/01/20 00:39:51;;;;;;;12.90;1.37;;;;;;;15.48;40.17;102602.09;5104613;28;20398;-67
2022/01/20 00:42:17;;;;;;;14.67;2.70;;;;;;;15.43;40.21;102607.38;5115513;28;20038;-67
2022/01/20 00:44:44;;;;;;;15.63;2.53;;;;;;;15.27;40.35;102597.75;5102665;28;20024;-68
2022/01/20 00:47:10;;;;;;;15.13;2.30;;;;;;;15.05;40.75;102589.88;5109704;28;20048;-67
2022/01/20 00:49:36;;;;;;;9.37;2.23;;;;;;;14.80;40.81;102601.31;5102584;27;20543;-67
2022/01/20 00:52:02;;;;;;;9.33;2.00;;;;;;;14.90;41.22;102613.56;5128004;27;20370;-67
2022/01/20 00:54:27;;;;;;;10.43;2.07;;;;;;;14.90;40.55;102603.03;5113038;27;20030;-67
2022/01/20 00:56:52;;;;;;;12.37;2.17;;;;;;;15.80;38.37;102598.53;5103966;27;20402;-67
2022/01/20 00:59:18;;;;;;;14.73;2.60;;;;;;;14.34;40.94;102605.59;5126533;27;20030;-67
2022/01/20 01:01:44;;;;;;;17.27;1.77;;;;;;;15.28;38.63;102604.78;5108618;27;20023;-67
2022/01/20 01:04:09;;;;;;;10.30;1.63;;;;;;;14.97;39.19;102610.06;5112854;27;20547;-67
2022/01/20 01:07:02;;;;;;;20.27;2.60;;;;;;;14.45;40.63;102628.41;5108584;27;20039;-69
2022/01/20 01:09:26;;;;;;;6.87;1.20;;;;;;;14.48;42.62;102620.50;5130266;27;20742;-69
2022/01/20 01:11:56;;;;;;;8.23;1.33;;;;;;;14.91;41.66;102623.22;5106855;27;20027;-67
2022/01/20 01:14:23;;;;;;;8.77;1.17;;;;;;;14.01;42.71;102609.88;5109904;27;20054;-67
2022/01/20 01:22:20;;;;;;;10.80;1.30;;;;;;;13.87;44.00;102601.03;5127845;27;20068;-69
2022/01/20 01:24:47;;;;;;;13.73;1.73;;;;;;;14.48;42.32;102600.34;5127680;27;20510;-67
2022/01/20 01:27:14;;;;;;;11.40;1.57;;;;;;;14.93;41.15;102605.66;5110210;27;20112;-67
2022/01/20 01:32:36;;;;;;;14.57;3.23;;;;;;;15.33;40.73;102605.66;5129290;27;20046;-67
2022/01/20 01:35:07;;;;;;;7.20;2.10;;;;;;;15.83;39.63;102613.47;5128801;27;20023;-67
2022/01/20 01:40:05;;;;;;;7.67;1.77;;;;;;;15.91;39.84;102611.66;5128386;27;20491;-67
2022/01/20 01:42:38;;;;;;;23.43;2.60;;;;;;;14.84;41.61;102611.81;5125087;27;20019;-67
2022/01/20 01:45:27;;;;;;;;;;;;;;;14.65;41.43;102623.22;5108220;27;20035;-67
2022/01/20 01:47:53;;;;;;;8.30;1.97;;;;;;;13.61;42.89;102622.78;5115030;27;19911;-67
2022/01/20 01:50:20;;;;;;;8.53;0.90;;;;;;;13.00;43.98;102626.72;5129447;27;20502;-69
2022/01/20 01:52:46;;;;;;;3.77;0.60;;;;;;;13.70;42.27;102630.75;5127350;27;20027;-67
2022/01/20 01:55:11;;;;;;;12.40;1.07;;;;;;;13.78;42.22;102637.78;5109906;27;20030;-67
2022/01/20 01:57:37;;;;;;;3.93;0.80;;;;;;;13.98;42.06;102636.13;5106299;27;20026;-67
2022/01/20 02:00:06;;;;;;;6.20;0.80;;;;;;;14.24;41.29;102633.59;5091959;28;20024;-67
2022/01/20 02:02:32;;;;;;;8.00;1.23;;;;;;;14.29;41.33;102625.72;5100377;27;20026;-67
2022/01/20 02:04:57;;;;;;;9.10;1.20;;;;;;;15.16;39.53;102633.75;5108991;27;20075;-68
2022/01/20 02:18:46;;;;;;;10.60;1.87;;;;;;;15.35;38.46;102632.00;5117306;27;20619;-67
2022/01/20 02:21:12;;;;;;;14.40;2.40;;;;;;;14.59;39.92;102624.06;5117358;27;20039;-67
2022/01/20 02:23:37;;;;;;;9.10;1.43;;;;;;;13.76;41.60;102634.28;5099203;28;20044;-67
2022/01/20 02:26:03;;;;;;;6.43;1.20;;;;;;;13.88;40.76;102629.09;5094526;28;20033;-69
2022/01/20 02:28:28;;;;;;;10.17;2.27;;;;;;;14.40;39.44;102617.88;5095477;28;20475;-67
2022/01/20 02:30:54;;;;;;;14.23;1.93;;;;;;;14.34;39.85;102608.22;5101273;28;20115;-67
2022/01/20 02:33:23;;;;;;;14.37;2.93;;;;;;;15.24;37.90;102619.69;5099564;28;20410;-67
2022/01/20 02:35:52;;;;;;;10.67;2.23;;;;;;;15.06;38.48;102610.06;5095897;28;20376;-67
2022/01/20 02:38:38;;;;;;;15.93;2.20;;;;;;;13.97;39.78;102605.47;5104669;28;20065;-67
2022/01/20 02:46:33;;;;;;;13.60;1.97;;;;;;;12.80;42.24;102613.41;5103667;28;20047;-69
2022/01/20 02:48:59;;;;;;;7.87;1.30;;;;;;;12.98;42.04;102612.72;5104344;28;20023;-69
2022/01/20 02:51:25;;;;;;;10.57;1.80;;;;;;;13.60;40.64;102601.78;5094366;28;20414;-67
2022/01/20 02:53:51;;;;;;;12.43;2.60;;;;;;;14.92;38.26;102606.56;5104946;28;20023;-67
2022/01/20 02:56:17;;;;;;;13.50;3.30;;;;;;;14.76;38.20;102611.81;5103648;28;20111;-67
2022/01/20 02:58:43;;;;;;;17.33;2.00;;;;;;;13.64;39.45;102598.28;5101641;28;20106;-67
2022/01/20 03:01:08;;;;;;;15.67;1.83;;;;;;;14.84;38.17;102603.94;5099032;28;20024;-69
2022/01/20 03:03:35;;;;;;;21.47;2.83;;;;;;;13.06;40.98;102604.88;5094531;28;20031;-69
2022/01/20 03:06:01;;;;;;;11.53;1.67;;;;;;;12.93;41.25;102609.16;5094228;28;20131;-69
2022/01/20 03:08:26;;;;;;;25.53;2.73;;;;;;;13.50;40.53;102616.59;5105309;28;20509;-67
2022/01/20 03:10:52;;;;;;;12.73;2.53;;;;;;;14.52;39.08;102602.13;5092130;28;20471;-67
2022/01/20 03:13:18;;;;;;;13.20;2.43;;;;;;;15.13;37.46;102610.94;5103679;28;20035;-69
2022/01/20 03:15:44;;;;;;;10.03;2.67;;;;;;;15.73;36.11;102616.09;5093064;28;20119;-67
2022/01/20 03:18:09;;;;;;;13.87;2.40;;;;;;;14.35;38.73;102609.94;5095279;28;20020;-67
2022/01/20 03:20:35;;;;;;;15.33;2.33;;;;;;;14.84;38.51;102614.44;5100663;28;20059;-67
2022/01/20 03:23:01;;;;;;;10.57;2.17;;;;;;;12.82;42.20;102627.44;5101008;27;20141;-67
2022/01/20 03:25:27;;;;;;;10.67;1.80;;;;;;;13.58;41.20;102625.41;5096199;27;20200;-67
2022/01/20 03:27:52;;;;;;;12.20;2.20;;;;;;;12.72;42.08;102636.06;5097826;28;20114;-67
2022/01/20 03:30:18;;;;;;;9.07;2.07;;;;;;;13.10;42.25;102632.06;5124880;27;20071;-67
2022/01/20 03:32:43;;;;;;;9.33;1.80;;;;;;;13.15;41.76;102638.22;5096507;28;20024;-67
2022/01/20 03:35:11;;;;;;;7.30;1.07;;;;;;;14.15;39.93;102635.31;5093652;28;20479;-69
2022/01/20 03:37:37;;;;;;;5.90;0.70;;;;;;;13.09;41.95;102631.16;5118985;27;20053;-69
2022/01/20 03:40:03;;;;;;;8.53;1.87;;;;;;;14.80;39.38;102627.63;5101898;27;20128;-69
2022/01/20 03:42:29;;;;;;;4.10;0.80;;;;;;;14.07;39.72;102624.78;5098863;28;20027;-67
2022/01/20 03:44:54;;;;;;;14.87;2.73;;;;;;;14.81;38.76;102635.53;5100021;27;20613;-67
2022/01/20 03:47:23;;;;;;;10.33;1.63;;;;;;;13.89;40.27;102646.63;5118982;27;20027;-67
2022/01/20 03:52:27;;;;;;;13.80;1.73;;;;;;;14.33;39.94;102645.00;5116704;27;20542;-67
2022/01/20 03:54:53;;;;;;;12.07;2.47;;;;;;;14.32;39.44;102644.16;5104770;28;20035;-67
2022/01/20 03:57:19;;;;;;;6.53;1.57;;;;;;;13.97;41.28;102658.06;5097669;27;20075;-69
2022/01/20 03:59:45;;;;;;;6.67;1.27;;;;;;;12.80;45.47;102659.78;5108733;28;20038;-69
2022/01/20 04:02:10;;;;;;;8.27;0.90;;;;;;;12.72;45.73;102670.19;5095840;28;20509;-67
2022/01/20 04:04:35;;;;;;;3.47;0.90;;;;;;;12.86;45.96;102667.72;5092168;28;20582;-67
2022/01/20 04:07:01;;;;;;;5.03;0.70;;;;;;;12.50;46.85;102682.19;5107881;28;20039;-67
2022/01/20 04:09:26;;;;;;;7.10;0.70;;;;;;;12.54;47.55;102683.97;5113104;28;20042;-67
2022/01/20 04:11:52;;;;;;;3.90;0.57;;;;;;;11.42;49.69;102691.19;5107189;28;20463;-67
2022/01/20 04:14:19;;;;;;;2.97;0.77;;;;;;;11.18;51.29;102702.97;5107460;28;20467;-67
2022/01/20 04:17:02;;;;;;;4.17;0.50;;;;;;;11.55;48.99;102685.25;5104886;28;20027;-67
2022/01/20 04:19:28;;;;;;;;;;;;;;;12.82;45.91;102673.81;5103996;28;20478;-66
2022/01/20 04:21:54;;;;;;;4.07;1.40;;;;;;;13.22;44.22;102672.41;5125141;27;20007;-67
2022/01/20 04:24:20;;;;;;;1.90;0.60;;;;;;;12.66;44.38;102678.88;5125149;27;20121;-67
2022/01/20 04:26:47;;;;;;;4.07;0.87;;;;;;;13.25;44.10;102682.06;5112495;27;20032;-67
2022/01/20 04:29:13;;;;;;;7.30;0.50;;;;;;;12.41;44.93;102696.09;5110828;27;20059;-67
2022/01/20 04:31:41;;;;;;;2.27;0.93;;;;;;;12.82;44.41;102697.44;5107514;27;20027;-67
2022/01/20 04:34:07;;;;;;;6.97;1.40;;;;;;;12.36;45.32;102701.28;5106578;27;20015;-67
2022/01/20 04:36:37;;;;;;;2.20;0.70;;;;;;;13.54;43.68;102702.44;5099599;27;20019;-67
2022/01/20 04:39:08;;;;;;;7.20;1.00;;;;;;;12.44;45.99;102703.13;5124460;27;20065;-67
2022/01/20 04:41:35;;;;;;;8.43;0.97;;;;;;;12.42;45.60;102704.81;5110465;27;20205;-67
2022/01/20 04:44:02;;;;;;;4.90;0.90;;;;;;;13.35;43.81;102702.31;5125631;27;20064;-67
2022/01/20 04:46:41;;;;;;;6.57;0.60;;;;;;;14.12;41.58;102711.56;5105231;27;20121;-67
2022/01/20 04:57:06;;;;;;;25.00;1.90;;;;;;;14.47;42.09;102734.53;5128750;27;20035;-67
2022/01/20 04:59:32;;;;;;;11.67;1.30;;;;;;;12.88;45.01;102747.34;5102813;27;20217;-66
2022/01/20 05:01:57;;;;;;;18.03;2.20;;;;;;;12.29;46.22;102761.50;5110355;27;20452;-67
2022/01/20 05:04:24;;;;;;;12.23;1.13;;;;;;;12.22;46.97;102769.25;5104516;27;20546;-67
2022/01/20 05:06:52;;;;;;;5.47;2.33;;;;;;;11.01;51.49;102775.97;5127049;27;20113;-67
2022/01/20 05:09:20;;;;;;;8.57;1.70;;;;;;;12.09;47.87;102758.56;5098268;27;20038;-67
2022/01/20 05:11:50;;;;;;;16.20;3.10;;;;;;;12.08;46.96;102762.09;5096549;27;20471;-67
2022/01/20 05:14:15;;;;;;;11.37;1.90;;;;;;;12.57;45.06;102757.50;5096461;28;20024;-67
2022/01/20 05:16:40;;;;;;;10.93;2.40;;;;;;;12.73;45.12;102748.94;5100868;27;20095;-67
2022/01/20 05:19:06;;;;;;;9.70;1.57;;;;;;;13.15;43.29;102748.50;5098769;28;20645;-66
2022/01/20 05:21:32;;;;;;;19.03;2.83;;;;;;;12.88;43.21;102753.44;5128683;27;20023;-67
2022/01/20 05:23:57;;;;;;;25.63;2.83;;;;;;;13.84;41.66;102753.47;5103279;27;20054;-67
2022/01/20 05:26:22;;;;;;;15.93;2.80;;;;;;;14.01;40.77;102757.09;5103032;28;20114;-66
2022/01/20 05:28:48;;;;;;;11.80;2.37;;;;;;;12.79;43.68;102773.47;5106186;27;20554;-67
2022/01/20 05:31:13;;;;;;;13.33;2.27;;;;;;;13.14;42.15;102771.22;5095394;27;20556;-67
2022/01/20 05:33:39;;;;;;;18.80;3.17;;;;;;;13.22;42.09;102763.44;5105225;27;20482;-67
2022/01/20 05:36:04;;;;;;;10.60;2.10;;;;;;;13.63;40.99;102770.84;5112153;27;20019;-68
2022/01/20 05:38:30;;;;;;;12.87;1.97;;;;;;;14.50;39.64;102771.38;5107202;27;20485;-66
2022/01/20 05:40:55;;;;;;;11.43;1.90;;;;;;;13.14;42.14;102762.47;5126595;27;20031;-67
2022/01/20 05:43:21;;;;;;;12.70;1.77;;;;;;;13.32;42.05;102775.78;5126614;27;20039;-67
2022/01/20 05:45:46;;;;;;;13.33;2.17;;;;;;;13.58;41.87;102773.41;5105381;27;20096;-67
2022/01/20 05:48:15;;;;;;;13.00;2.00;;;;;;;13.52;40.83;102778.63;5103224;27;20031;-67
2022/01/20 05:50:41;;;;;;;10.10;2.67;;;;;;;12.81;42.33;102787.50;5104935;27;20052;-67
2022/01/20 05:53:08;;;;;;;18.87;2.47;;;;;;;14.06;39.90;102786.91;5105457;27;20035;-67
2022/01/20 05:55:33;;;;;;;16.20;2.10;;;;;;;13.64;40.09;102798.88;5103520;27;20429;-67
2022/01/20 05:57:59;;;;;;;19.50;2.57;;;;;;;14.38;38.63;102799.41;5105507;27;20049;-67
2022/01/20 06:00:25;;;;;;;10.77;1.93;;;;;;;13.57;40.95;102799.69;5106009;27;20031;-67
2022/01/20 06:05:37;;;;;;;20.23;2.20;;;;;;;13.87;39.13;102801.66;5124500;27;20116;-67
2022/01/20 06:08:03;;;;;;;15.33;2.37;;;;;;;14.07;38.04;102801.81;5097684;27;20024;-67
2022/01/20 06:10:28;;;;;;;10.10;2.17;;;;;;;13.29;39.87;102806.41;5103289;28;20034;-67
2022/01/20 06:12:54;;;;;;;8.83;2.10;;;;;;;13.24;39.85;102803.72;5101681;27;20027;-67
2022/01/20 06:15:19;;;;;;;17.70;2.33;;;;;;;13.86;38.24;102809.56;5109434;27;20079;-67
2022/01/20 06:17:45;;;;;;;7.07;1.83;;;;;;;13.99;37.23;102811.41;5128166;27;20489;-68
2022/01/20 06:20:10;;;;;;;17.10;2.07;;;;;;;13.88;37.36;102818.34;5129520;27;20038;-68
2022/01/20 06:22:37;;;;;;;15.57;1.97;;;;;;;13.31;38.36;102821.31;5130852;27;20468;-67
2022/01/20 06:25:04;;;;;;;12.17;2.00;;;;;;;14.04;37.31;102811.44;5130664;27;20445;-68
2022/01/20 06:27:30;;;;;;;12.13;1.63;;;;;;;13.29;37.70;102816.91;5112943;27;20118;-67
2022/01/20 06:29:55;;;;;;;12.47;2.00;;;;;;;13.93;36.51;102818.38;5128513;27;20371;-68
2022/01/20 06:32:21;;;;;;;8.40;1.30;;;;;;;12.43;39.01;102827.22;5119007;27;20127;-67
2022/01/20 06:34:46;;;;;;;10.53;1.13;;;;;;;12.76;38.47;102826.78;5115730;27;20360;-67
2022/01/20 06:37:12;;;;;;;11.40;1.83;;;;;;;13.42;38.21;102828.44;5113376;27;20363;-67
2022/01/20 06:39:37;;;;;;;12.97;2.60;;;;;;;12.95;39.06;102820.03;5118969;27;20094;-68
2022/01/20 06:42:03;;;;;;;5.40;1.27;;;;;;;12.04;39.17;102830.16;5109578;27;20151;-67
2022/01/20 06:44:29;;;;;;;3.23;0.97;;;;;;;12.04;39.88;102847.63;5105920;27;20019;-68
2022/01/20 06:46:54;;;;;;;8.40;1.00;;;;;;;12.55;38.70;102849.25;5092674;28;20058;-67
2022/01/20 06:49:19;;;;;;;9.30;1.70;;;;;;;12.78;38.83;102855.69;5093975;28;20027;-67
2022/01/20 06:51:46;;;;;;;11.73;2.27;;;;;;;12.71;38.28;102852.97;5111083;27;20016;-67
2022/01/20 06:54:12;;;;;;;16.37;1.60;;;;;;;11.61;38.88;102859.97;5105517;27;20019;-68
2022/01/20 06:56:38;;;;;;;5.27;0.77;;;;;;;12.19;38.30;102867.97;5103112;27;20076;-68
2022/01/20 06:59:04;;;;;;;6.17;1.03;;;;;;;11.30;39.86;102865.50;5126383;27;20107;-68
2022/01/20 07:01:30;;;;;;;4.17;1.23;;;;;;;13.42;36.69;102867.84;5113815;27;20038;-68
2022/01/20 07:03:55;;;;;;;9.33;1.13;;;;;;;13.16;36.74;102868.41;5113327;27;20432;-67
2022/01/20 07:06:21;;;;;;;7.93;1.87;;;;;;;12.93;36.48;102876.88;5112002;27;20015;-68
2022/01/20 07:08:46;;;;;;;7.33;1.40;;;;;;;12.74;36.36;102881.00;5110378;27;20034;-68
2022/01/20 07:11:12;;;;;;;5.33;1.20;;;;;;;13.33;36.02;102876.47;5115177;27;20037;-67
2022/01/20 07:13:37;;;;;;;12.07;1.20;;;;;;;12.72;36.90;102894.13;5129496;27;20019;-67
2022/01/20 07:16:03;;;;;;;9.77;1.20;;;;;;;13.63;36.53;102907.47;5105765;27;20042;-67
2022/01/20 07:18:29;;;;;;;10.63;1.33;;;;;;;13.61;36.65;102913.59;5110046;27;20398;-67
2022/01/20 07:20:54;;;;;;;11.67;1.37;;;;;;;13.84;36.44;102916.44;5110020;27;20023;-68
2022/01/20 07:23:20;;;;;;;12.70;1.40;;;;;;;13.81;36.87;102912.03;5105945;28;20035;-67
2022/01/20 07:25:45;;;;;;;8.27;1.50;;;;;;;14.00;36.54;102902.56;5103978;28;20138;-67
2022/01/20 07:28:10;;;;;;;9.37;1.97;;;;;;;13.40;37.65;102900.22;5087884;28;20114;-67
2022/01/20 07:30:36;;;;;;;4.20;1.17;;;;;;;13.84;36.47;102890.16;5099582;28;20066;-67
2022/01/20 07:33:03;;;;;;;7.40;1.67;;;;;;;13.43;37.29;102890.63;5097619;28;20019;-68
2022/01/20 07:35:29;;;;;;;4.73;1.53;;;;;;;13.86;37.07;102881.41;5106284;28;20035;-67
2022/01/20 07:37:54;;;;;;;11.67;1.40;;;;;;;13.96;36.16;102890.25;5104009;28;20470;-67
2022/01/20 07:40:20;;;;;;;4.43;1.47;;;;;;;13.34;37.82;102884.38;5100438;28;20031;-67
2022/01/20 07:42:45;;;;;;;3.67;1.73;;;;;;;13.58;37.64;102893.41;5101597;28;20024;-68
2022/01/20 07:45:11;;;;;;;13.07;1.47;;;;;;;14.12;36.50;102890.38;5097348;28;20034;-68
2022/01/20 07:47:36;;;;;;;10.23;1.70;;;;;;;14.62;36.00;102903.03;5108944;28;20037;-68
2022/01/20 07:50:03;;;;;;;14.13;1.90;;;;;;;14.28;35.99;102918.56;5101300;28;20118;-68
2022/01/20 07:52:28;;;;;;;4.93;1.50;;;;;;;14.62;35.54;102929.34;5105807;28;20019;-68
2022/01/20 07:54:53;;;;;;;8.47;1.87;;;;;;;13.98;37.08;102946.34;5106558;28;20031;-68
2022/01/20 07:57:19;;;;;;;11.17;2.03;;;;;;;13.57;38.63;102949.44;5104475;28;20038;-67
2022/01/20 07:59:44;;;;;;;11.60;2.67;;;;;;;13.01;38.39;102959.25;5105982;28;20035;-68
2022/01/20 08:02:10;;;;;;;7.77;1.30;;;;;;;13.38;38.27;102954.50;5095598;28;20395;-68
2022/01/20 08:04:35;;;;;;;13.70;1.53;;;;;;;13.16;38.07;102957.66;5105164;28;20133;-68
2022/01/20 08:07:00;;;;;;;9.10;1.23;;;;;;;11.88;40.01;102946.03;5099957;28;20046;-67
2022/01/20 08:09:26;;;;;;;9.10;0.83;;;;;;;12.59;38.51;102944.63;5097639;28;20031;-68
2022/01/20 08:11:51;;;;;;;9.17;1.10;;;;;;;13.36;37.11;102948.31;5098415;28;20032;-68
2022/01/20 08:14:17;;;;;;;10.83;1.57;;;;;;;13.36;36.59;102944.84;5105526;28;20016;-67
2022/01/20 08:16:42;;;;;;;5.57;1.20;;;;;;;14.08;34.85;102932.44;5104275;28;20116;-68
2022/01/20 08:19:08;;;;;;;10.67;1.57;;;;;;;13.62;35.69;102934.63;5103890;28;20051;-67
2022/01/20 08:21:33;;;;;;;8.27;1.53;;;;;;;13.13;35.70;102948.00;5103816;28;20117;-68
2022/01/20 08:23:58;;;;;;;12.47;2.37;;;;;;;14.12;34.68;102940.34;5105639;28;20044;-67
2022/01/20 08:26:24;;;;;;;8.07;1.77;;;;;;;12.69;37.29;102946.56;5099418;28;20035;-67
2022/01/20 08:28:49;;;;;;;14.57;1.53;;;;;;;13.33;36.26;102945.63;5098706;28;20407;-67
2022/01/20 08:31:14;;;;;;;9.03;1.50;;;;;;;13.17;36.00;102946.31;5102139;28;20103;-68
2022/01/20 08:33:40;;;;;;;9.00;1.40;;;;;;;14.34;34.75;102934.41;5105073;28;20024;-68
2022/01/20 08:36:05;;;;;;;8.93;1.20;;;;;;;14.43;34.02;102946.75;5105957;28;20080;-68
2022/01/20 08:38:31;;;;;;;13.57;1.83;;;;;;;15.47;32.80;102947.31;5104890;28;20035;-67
2022/01/20 08:40:56;;;;;;;9.13;1.60;;;;;;;15.12;33.55;102948.06;5098411;28;20366;-67
2022/01/20 08:43:23;;;;;;;14.23;2.73;;;;;;;14.73;33.43;102956.63;5101350;28;20036;-68
2022/01/20 08:45:49;;;;;;;12.10;2.33;;;;;;;14.95;33.10;102946.22;5105717;28;20027;-67
2022/01/20 08:48:14;;;;;;;15.40;3.50;;;;;;;14.45;34.07;102952.00;5108526;28;20494;-68
2022/01/20 08:50:42;;;;;;;10.40;1.80;;;;;;;14.45;34.41;102962.53;5105624;28;20023;-68
2022/01/20 08:53:08;;;;;;;9.70;1.70;;;;;;;13.64;34.75;102972.31;5097722;28;20048;-68
2022/01/20 08:55:35;;;;;;;11.30;1.30;;;;;;;14.30;33.35;102964.19;5094625;28;20387;-68
2022/01/20 08:58:01;;;;;;;10.33;1.03;;;;;;;13.64;35.00;102982.81;5102007;28;20382;-67
2022/01/20 09:00:28;;;;;;;6.53;1.57;;;;;;;13.66;34.42;102991.59;5103958;28;20035;-68
2022/01/20 09:02:54;;;;;;;12.73;3.10;;;;;;;13.82;34.85;103002.28;5103431;28;20019;-68
2022/01/20 09:05:20;;;;;;;9.63;1.90;;;;;;;13.22;36.17;103000.66;5099564;28;20498;-67
2022/01/20 09:07:45;;;;;;;7.53;2.30;;;;;;;11.79;37.15;103011.41;5108045;28;20394;-68
2022/01/20 09:10:18;;;;;;;9.40;1.50;;;;;;;13.70;35.62;103014.41;5108120;28;20040;-68
2022/01/20 09:15:31;;;;;;;13.03;1.80;;;;;;;12.72;37.09;103017.44;5110517;28;20122;-69
2022/01/20 09:18:00;;;;;;;8.70;1.30;;;;;;;13.46;35.96;103024.63;5109985;28;20039;-70
2022/01/20 09:20:26;;;;;;;12.00;1.63;;;;;;;13.00;37.72;103033.59;5102184;28;20550;-67
2022/01/20 09:22:54;;;;;;;13.13;1.53;;;;;;;14.83;34.52;103028.66;5109391;28;20023;-68
2022/01/20 09:25:21;;;;;;;12.33;1.20;;;;;;;13.72;35.64;103038.09;5110521;28;20510;-67
2022/01/20 09:27:46;;;;;;;10.27;1.53;;;;;;;13.72;36.54;103027.56;5110970;28;20031;-68
2022/01/20 09:30:18;;;;;;;14.23;2.17;;;;;;;13.12;37.24;103034.63;5112482;28;20491;-68
2022/01/20 09:32:46;;;;;;;11.27;1.50;;;;;;;13.01;36.60;103027.50;5092264;28;20050;-67
2022/01/20 09:35:11;;;;;;;15.30;2.20;;;;;;;13.04;36.01;103038.03;5091021;28;20436;-68
2022/01/20 09:37:39;;;;;;;32.10;2.03;;;;;;;12.55;36.41;103037.25;5104129;28;20028;-68
2022/01/20 09:40:05;;;;;;;9.10;1.30;;;;;;;13.14;36.64;103038.19;5109639;28;20032;-68
2022/01/20 09:42:33;;;;;;;10.43;1.93;;;;;;;14.08;33.95;103021.84;5104278;28;20020;-68
2022/01/20 09:44:59;;;;;;;9.70;1.80;;;;;;;14.32;34.14;103020.31;5106313;28;20030;-68
2022/01/20 09:47:24;;;;;;;5.27;1.40;;;;;;;13.71;34.60;103034.59;5092118;28;20043;-68
2022/01/20 09:49:51;;;;;;;9.93;1.10;;;;;;;14.70;33.45;103021.53;5102663;28;20035;-68
2022/01/20 09:52:16;;;;;;;10.87;2.70;;;;;;;14.52;33.13;103032.75;5111125;28;20482;-68
2022/01/20 09:54:42;;;;;;;10.47;1.80;;;;;;;14.46;33.94;103030.09;5109787;28;20081;-68
2022/01/20 09:57:07;;;;;;;11.27;1.43;;;;;;;13.92;35.25;103046.22;5110985;28;20066;-68
2022/01/20 09:59:33;;;;;;;10.37;1.67;;;;;;;14.59;34.29;103050.38;5109528;28;21402;-67
2022/01/20 10:01:58;;;;;;;7.83;1.37;;;;;;;13.99;34.53;103053.31;5110244;28;20501;-68
2022/01/20 10:04:29;;;;;;;12.17;1.60;;;;;;;14.46;34.43;103067.78;5096090;28;20027;-67
2022/01/20 10:07:09;;;;;;;5.13;1.20;;;;;;;11.88;39.75;103096.31;5092045;28;20047;-67
2022/01/20 10:09:41;;;;;;;8.03;1.50;;;;;;;11.23;41.54;103098.38;5090724;28;20398;-67
2022/01/20 10:12:11;;;;;;;8.27;2.07;;;;;;;12.61;39.11;103088.94;5106887;28;20051;-67
2022/01/20 10:14:41;;;;;;;4.20;0.80;;;;;;;12.93;37.90;103088.59;5106507;28;20281;-67
2022/01/20 10:17:32;;;;;;;11.97;1.23;;;;;;;13.32;38.13;103085.69;5109576;28;20470;-67
2022/01/20 10:20:06;;;;;;;7.73;1.30;;;;;;;12.31;38.82;103091.06;5091401;28;20054;-67
2022/01/20 10:22:35;;;;;;;8.00;1.33;;;;;;;12.73;38.25;103090.06;5102092;28;20053;-68
2022/01/20 10:25:12;;;;;;;7.40;1.67;;;;;;;12.97;37.46;103093.94;5103061;28;20051;-67
2022/01/20 10:27:52;;;;;;;8.93;2.50;;;;;;;12.84;36.90;103112.97;5097530;28;20117;-67
2022/01/20 10:30:18;;;;;;;4.93;1.17;;;;;;;11.65;37.91;103116.78;5104959;28;20479;-67
2022/01/20 10:32:52;;;;;;;4.53;1.10;;;;;;;12.77;36.70;103103.22;5100955;28;20016;-67
2022/01/20 10:35:23;;;;;;;9.43;1.17;;;;;;;13.24;36.08;103108.34;5109582;28;20031;-67
2022/01/20 10:38:14;;;;;;;10.73;1.33;;;;;;;13.57;35.38;103099.22;5100682;28;20024;-67
2022/01/20 10:40:56;;;;;;;11.17;0.93;;;;;;;14.37;34.26;103107.16;5102403;28;20027;-68
2022/01/20 10:43:25;;;;;;;10.60;1.83;;;;;;;13.73;35.72;103119.56;5109370;28;20120;-70
2022/01/20 10:46:08;;;;;;;12.77;2.67;;;;;;;13.65;35.46;103110.72;5108477;28;20502;-67
2022/01/20 10:48:34;;;;;;;7.80;1.00;;;;;;;13.65;35.67;103118.59;5107155;28;20070;-67
2022/01/20 10:50:59;;;;;;;7.37;1.00;;;;;;;14.55;34.48;103117.00;5106718;28;20118;-68
2022/01/20 10:53:25;;;;;;;6.83;1.17;;;;;;;12.91;36.21;103125.31;5088985;28;20016;-68
2022/01/20 10:55:51;;;;;;;5.70;1.17;;;;;;;12.93;36.90;103134.13;5107783;28;20065;-67
2022/01/20 10:58:22;;;;;;;7.93;1.37;;;;;;;14.08;35.13;103137.56;5110311;28;20428;-67
2022/01/20 11:00:53;;;;;;;9.63;0.90;;;;;;;14.65;34.02;103136.44;5106340;28;20101;-68
2022/01/20 11:03:19;;;;;;;5.57;0.90;;;;;;;14.85;34.17;103123.44;5110637;28;20153;-68
2022/01/20 11:05:49;;;;;;;6.97;1.47;;;;;;;14.01;34.89;103125.22;5108340;28;20475;-68
2022/01/20 11:08:15;;;;;;;14.73;1.30;;;;;;;13.31;36.75;103125.97;5097098;28;20097;-68
2022/01/20 11:10:42;;;;;;;9.47;1.30;;;;;;;13.17;36.84;103122.25;5109194;28;20047;-68
2022/01/20 11:13:13;;;;;;;12.77;3.03;;;;;;;13.53;35.84;103121.06;5107023;28;20089;-68
2022/01/20 11:15:40;;;;;;;18.87;2.40;;;;;;;13.97;35.62;103118.16;5107395;28;20093;-68
2022/01/20 11:18:08;;;;;;;13.37;1.70;;;;;;;13.47;37.08;103111.34;5104371;28;20024;-68
2022/01/20 11:20:42;;;;;;;7.97;2.23;;;;;;;13.73;35.88;103114.31;5106804;28;20023;-68
2022/01/20 11:23:08;;;;;;;9.80;2.13;;;;;;;14.28;35.85;103115.84;5108392;27;20031;-68
2022/01/20 11:25:36;;;;;;;21.00;3.00;;;;;;;14.03;36.73;103133.97;5130292;27;20583;-68
2022/01/20 11:28:16;;;;;;;8.80;1.80;;;;;;;11.96;40.47;103135.81;5111839;27;20023;-68
2022/01/20 11:31:06;;;;;;;12.23;3.50;;;;;;;13.22;38.32;103125.84;5130626;27;20106;-68
2022/01/20 11:33:40;;;;;;;11.43;1.70;;;;;;;13.66;36.59;103123.00;5111261;27;20109;-68
2022/01/20 11:36:09;;;;;;;9.73;0.97;;;;;;;13.76;37.39;103118.75;5111481;27;20027;-68
2022/01/20 11:38:48;;;;;;;6.10;0.90;;;;;;;13.29;37.60;103117.19;5107465;27;20305;-68
2022/01/20 11:41:16;;;;;;;2.67;0.50;;;;;;;12.52;39.15;103131.66;5098722;27;20129;-67
2022/01/20 11:43:47;;;;;;;7.33;0.67;;;;;;;13.32;37.71;103114.59;5112336;27;20031;-68
2022/01/20 11:46:15;;;;;;;4.43;0.93;;;;;;;13.53;37.89;103115.78;5111195;27;20092;-68
2022/01/20 11:48:58;;;;;;;4.93;0.90;;;;;;;14.01;35.90;103104.16;5111239;27;20031;-68
2022/01/20 11:51:26;;;;;;;7.25;1.02;;;;;;;14.49;35.41;103106.41;5109861;27;20095;-68
2022/01/20 11:54:03;;;;;;;6.97;1.40;;;;;;;14.07;36.77;103098.97;5128986;27;20027;-68
2022/01/20 11:56:30;;;;;;;5.17;1.07;;;;;;;14.23;36.12;103100.03;5110947;27;20019;-67
2022/01/20 11:58:55;;;;;;;5.67;1.33;;;;;;;14.55;35.86;103090.69;5099850;27;20473;-67
2022/01/20 12:01:21;;;;;;;7.17;1.30;;;;;;;15.64;34.22;103087.94;5109372;27;20034;-68
2022/01/20 12:03:51;;;;;;;6.37;1.43;;;;;;;14.62;35.27;103087.25;5109750;28;20072;-68
2022/01/20 12:06:22;;;;;;;3.90;0.70;;;;;;;15.12;34.96;103085.91;5126210;28;20038;-68
2022/01/20 12:08:59;;;;;;;5.43;1.27;;;;;;;15.00;35.04;103073.56;5107871;28;20023;-67
2022/01/20 12:11:45;;;;;;;2.27;0.70;;;;;;;15.58;34.58;103069.50;5127458;28;20088;-68
2022/01/20 12:14:12;;;;;;;6.13;0.80;;;;;;;14.51;35.90;103067.84;5123687;28;20027;-67
2022/01/20 12:16:40;;;;;;;11.73;1.97;;;;;;;16.35;33.25;103053.91;5127718;28;20039;-68
2022/01/20 12:19:09;;;;;;;8.60;1.93;;;;;;;15.02;35.79;103056.00;5124971;28;20386;-68
2022/01/20 12:21:37;;;;;;;7.40;1.87;;;;;;;16.27;34.39;103056.53;5107892;28;20087;-68
2022/01/20 12:24:03;;;;;;;3.67;1.20;;;;;;;14.31;37.83;103060.63;5110012;28;20052;-67
2022/01/20 12:26:34;;;;;;;6.40;1.00;;;;;;;14.19;36.64;103064.03;5102333;28;20493;-68
2022/01/20 12:29:08;;;;;;;6.53;0.83;;;;;;;13.57;37.40;103067.69;5103022;28;20475;-68